sensor_id;sensor_type;location;lat;lon;timestamp;temperature;humidity
6421;DHT22;3243;50.958;7.012;2022-11-20T00:00:54;3.90;99.90
6421;DHT22;3243;50.958;7.012;2022-11-20T00:13:09;3.90;1.00
6421;DHT22;3243;50.958;7.012;2022-11-20T00:15:36;4.00;99.90
6421;DHT22;3243;50.958;7.012;2022-11-20T00:20:29;4.00;1.00
6421;DHT22;3243;50.958;7.012;2022-11-20T00:25:23;3.90;1.00
6421;DHT22;3243;50.958;7.012;2022-11-20T00:27:50;3.90;61.10
6421;DHT22;3243;50.958;7.012;2022-11-20T00:32:44;3.90;94.40
6421;DHT22;3243;50.958;7.012;2022-11-20T00:35:11;3.90;1.00
6421;DHT22;3243;50.958;7.012;2022-11-20T00:40:05;3.90;99.90
6421;DHT22;3243;50.958;7.012;2022-11-20T00:44:59;4.00;99.90
6421;DHT22;3243;50.958;7.012;2022-11-20T00:49:53;3.90;1.00
6421;DHT22;3243;50.958;7.012;2022-11-20T00:52:19;4.00;20.50
6421;DHT22;3243;50.958;7.012;2022-11-20T01:02:07;3.90;1.00
6421;DHT22;3243;50.958;7.012;2022-11-20T01:04:34;3.80;8.80
6421;DHT22;3243;50.958;7.012;2022-11-20T01:09:28;3.80;1.00
6421;DHT22;3243;50.958;7.012;2022-11-20T01:14:22;3.80;1.00
6421;DHT22;3243;50.958;7.012;2022-11-20T01:16:50;3.80;1.00
6421;DHT22;3243;50.958;7.012;2022-11-20T01:19:19;3.80;1.00
6421;DHT22;3243;50.958;7.012;2022-11-20T01:21:49;3.80;1.00
6421;DHT22;3243;50.958;7.012;2022-11-20T01:24:18;3.80;1.00
6421;DHT22;3243;50.958;7.012;2022-11-20T01:26:47;3.90;1.00
6421;DHT22;3243;50.958;7.012;2022-11-20T01:29:20;3.80;1.00
6421;DHT22;3243;50.958;7.012;2022-11-20T01:34:17;3.90;1.00
6421;DHT22;3243;50.958;7.012;2022-11-20T01:36:45;3.90;1.00
6421;DHT22;3243;50.958;7.012;2022-11-20T01:41:39;3.90;99.90
6421;DHT22;3243;50.958;7.012;2022-11-20T01:45:00;3.90;99.90
6421;DHT22;3243;50.958;7.012;2022-11-20T01:50:18;3.90;1.00
6421;DHT22;3243;50.958;7.012;2022-11-20T01:52:52;3.90;1.00
6421;DHT22;3243;50.958;7.012;2022-11-20T01:55:24;3.90;1.00
6421;DHT22;3243;50.958;7.012;2022-11-20T01:57:52;3.90;1.00
6421;DHT22;3243;50.958;7.012;2022-11-20T02:00:20;3.90;1.00
6421;DHT22;3243;50.958;7.012;2022-11-20T02:03:07;4.00;1.00
6421;DHT22;3243;50.958;7.012;2022-11-20T02:08:23;3.90;1.00
6421;DHT22;3243;50.958;7.012;2022-11-20T02:18:30;3.90;1.00
6421;DHT22;3243;50.958;7.012;2022-11-20T02:21:03;3.90;1.00
6421;DHT22;3243;50.958;7.012;2022-11-20T02:24:00;3.80;1.00
6421;DHT22;3243;50.958;7.012;2022-11-20T02:26:29;3.80;1.00
6421;DHT22;3243;50.958;7.012;2022-11-20T02:28:58;3.80;1.00
6421;DHT22;3243;50.958;7.012;2022-11-20T02:31:25;3.80;1.00
6421;DHT22;3243;50.958;7.012;2022-11-20T02:33:56;3.80;1.00
6421;DHT22;3243;50.958;7.012;2022-11-20T02:36:24;3.90;99.90
6421;DHT22;3243;50.958;7.012;2022-11-20T02:41:19;3.90;1.00
6421;DHT22;3243;50.958;7.012;2022-11-20T02:48:40;3.90;1.00
6421;DHT22;3243;50.958;7.012;2022-11-20T02:53:34;3.90;1.00
6421;DHT22;3243;50.958;7.012;2022-11-20T02:56:00;3.80;1.00
6421;DHT22;3243;50.958;7.012;2022-11-20T03:05:48;3.90;1.00
6421;DHT22;3243;50.958;7.012;2022-11-20T03:10:42;3.90;1.00
6421;DHT22;3243;50.958;7.012;2022-11-20T03:13:09;3.90;1.00
6421;DHT22;3243;50.958;7.012;2022-11-20T03:15:36;3.90;99.90
6421;DHT22;3243;50.958;7.012;2022-11-20T03:20:32;3.90;99.90
6421;DHT22;3243;50.958;7.012;2022-11-20T03:22:59;3.90;1.00
6421;DHT22;3243;50.958;7.012;2022-11-20T03:27:54;3.90;99.90
6421;DHT22;3243;50.958;7.012;2022-11-20T03:30:21;3.90;31.80
6421;DHT22;3243;50.958;7.012;2022-11-20T03:32:55;3.90;99.90
6421;DHT22;3243;50.958;7.012;2022-11-20T03:37:49;3.90;99.90
6421;DHT22;3243;50.958;7.012;2022-11-20T03:42:43;3.80;99.90
6421;DHT22;3243;50.958;7.012;2022-11-20T03:45:17;3.90;1.00
6421;DHT22;3243;50.958;7.012;2022-11-20T03:47:44;3.80;99.90
6421;DHT22;3243;50.958;7.012;2022-11-20T03:50:12;3.90;99.90
6421;DHT22;3243;50.958;7.012;2022-11-20T03:52:39;3.80;99.90
6421;DHT22;3243;50.958;7.012;2022-11-20T03:55:07;3.80;43.60
6421;DHT22;3243;50.958;7.012;2022-11-20T03:57:34;3.90;95.00
6421;DHT22;3243;50.958;7.012;2022-11-20T04:00:00;3.80;1.00
6421;DHT22;3243;50.958;7.012;2022-11-20T04:04:54;3.90;1.00
6421;DHT22;3243;50.958;7.012;2022-11-20T04:07:21;3.90;1.00
6421;DHT22;3243;50.958;7.012;2022-11-20T04:22:03;3.80;99.90
6421;DHT22;3243;50.958;7.012;2022-11-20T04:24:30;3.70;1.00
6421;DHT22;3243;50.958;7.012;2022-11-20T04:39:13;3.20;99.90
6421;DHT22;3243;50.958;7.012;2022-11-20T04:44:08;3.20;99.90
6421;DHT22;3243;50.958;7.012;2022-11-20T04:46:41;3.20;1.00
6421;DHT22;3243;50.958;7.012;2022-11-20T04:49:08;3.20;99.90
6421;DHT22;3243;50.958;7.012;2022-11-20T04:51:35;3.10;99.90
6421;DHT22;3243;50.958;7.012;2022-11-20T04:59:00;3.20;99.90
6421;DHT22;3243;50.958;7.012;2022-11-20T05:01:27;3.20;99.90
6421;DHT22;3243;50.958;7.012;2022-11-20T05:06:22;3.30;1.00
6421;DHT22;3243;50.958;7.012;2022-11-20T05:11:19;3.40;1.00
6421;DHT22;3243;50.958;7.012;2022-11-20T05:13:46;3.50;99.90
6421;DHT22;3243;50.958;7.012;2022-11-20T05:16:16;3.50;53.80
6421;DHT22;3243;50.958;7.012;2022-11-20T05:18:43;3.60;1.00
6421;DHT22;3243;50.958;7.012;2022-11-20T05:21:11;3.60;1.00
6421;DHT22;3243;50.958;7.012;2022-11-20T05:23:38;3.60;99.90
6421;DHT22;3243;50.958;7.012;2022-11-20T05:26:07;3.50;99.90
6421;DHT22;3243;50.958;7.012;2022-11-20T05:28:34;3.60;99.90
6421;DHT22;3243;50.958;7.012;2022-11-20T05:33:33;3.60;99.90
6421;DHT22;3243;50.958;7.012;2022-11-20T05:38:26;3.60;99.90
6421;DHT22;3243;50.958;7.012;2022-11-20T05:43:20;3.60;99.90
6421;DHT22;3243;50.958;7.012;2022-11-20T05:45:54;3.60;99.90
6421;DHT22;3243;50.958;7.012;2022-11-20T05:50:48;3.70;99.90
6421;DHT22;3243;50.958;7.012;2022-11-20T05:53:15;3.60;99.90
6421;DHT22;3243;50.958;7.012;2022-11-20T05:55:41;3.60;99.90
6421;DHT22;3243;50.958;7.012;2022-11-20T06:00:35;3.60;99.90
6421;DHT22;3243;50.958;7.012;2022-11-20T06:15:17;3.70;99.90
6421;DHT22;3243;50.958;7.012;2022-11-20T06:17:44;3.70;99.90
6421;DHT22;3243;50.958;7.012;2022-11-20T06:20:14;3.70;99.90
6421;DHT22;3243;50.958;7.012;2022-11-20T06:22:41;3.60;99.90
6421;DHT22;3243;50.958;7.012;2022-11-20T06:25:08;3.60;99.90
6421;DHT22;3243;50.958;7.012;2022-11-20T06:30:03;3.60;99.90
6421;DHT22;3243;50.958;7.012;2022-11-20T06:34:57;3.40;99.90
6421;DHT22;3243;50.958;7.012;2022-11-20T06:37:24;3.30;99.90
6421;DHT22;3243;50.958;7.012;2022-11-20T06:44:45;3.20;99.90
6421;DHT22;3243;50.958;7.012;2022-11-20T06:49:39;3.20;99.90
6421;DHT22;3243;50.958;7.012;2022-11-20T06:54:33;3.30;99.90
6421;DHT22;3243;50.958;7.012;2022-11-20T06:59:27;3.40;99.90
6421;DHT22;3243;50.958;7.012;2022-11-20T07:01:54;3.40;99.90
6421;DHT22;3243;50.958;7.012;2022-11-20T07:04:21;3.50;99.90
6421;DHT22;3243;50.958;7.012;2022-11-20T07:06:48;3.50;99.90
6421;DHT22;3243;50.958;7.012;2022-11-20T07:14:10;3.60;99.90
6421;DHT22;3243;50.958;7.012;2022-11-20T07:16:36;3.60;99.90
6421;DHT22;3243;50.958;7.012;2022-11-20T07:19:03;3.60;99.90
6421;DHT22;3243;50.958;7.012;2022-11-20T07:26:24;3.60;99.90
6421;DHT22;3243;50.958;7.012;2022-11-20T07:28:51;3.70;99.90
6421;DHT22;3243;50.958;7.012;2022-11-20T07:33:45;3.70;99.90
6421;DHT22;3243;50.958;7.012;2022-11-20T07:36:12;3.70;99.90
6421;DHT22;3243;50.958;7.012;2022-11-20T07:41:06;3.80;99.90
6421;DHT22;3243;50.958;7.012;2022-11-20T07:43:33;3.90;99.90
6421;DHT22;3243;50.958;7.012;2022-11-20T07:48:33;4.00;99.90
6421;DHT22;3243;50.958;7.012;2022-11-20T07:53:27;4.00;99.90
6421;DHT22;3243;50.958;7.012;2022-11-20T07:58:21;4.10;99.90
6421;DHT22;3243;50.958;7.012;2022-11-20T08:03:15;4.20;99.90
6421;DHT22;3243;50.958;7.012;2022-11-20T08:05:50;4.30;99.90
6421;DHT22;3243;50.958;7.012;2022-11-20T08:08:16;4.30;99.90
6421;DHT22;3243;50.958;7.012;2022-11-20T08:15:56;4.40;99.90
6421;DHT22;3243;50.958;7.012;2022-11-20T08:18:23;4.30;99.90
6421;DHT22;3243;50.958;7.012;2022-11-20T08:23:25;4.40;99.90
6421;DHT22;3243;50.958;7.012;2022-11-20T08:28:19;4.50;99.90
6421;DHT22;3243;50.958;7.012;2022-11-20T08:30:49;4.50;99.90
6421;DHT22;3243;50.958;7.012;2022-11-20T08:33:17;4.60;99.90
6421;DHT22;3243;50.958;7.012;2022-11-20T08:35:44;4.70;99.90
6421;DHT22;3243;50.958;7.012;2022-11-20T08:38:11;4.70;99.90
6421;DHT22;3243;50.958;7.012;2022-11-20T08:40:38;4.80;99.90
6421;DHT22;3243;50.958;7.012;2022-11-20T08:43:05;4.90;99.90
6421;DHT22;3243;50.958;7.012;2022-11-20T08:45:41;5.00;99.90
6421;DHT22;3243;50.958;7.012;2022-11-20T08:48:08;5.10;99.90
6421;DHT22;3243;50.958;7.012;2022-11-20T08:53:05;5.30;99.90
6421;DHT22;3243;50.958;7.012;2022-11-20T08:55:32;5.40;99.90
6421;DHT22;3243;50.958;7.012;2022-11-20T08:58:03;5.50;99.90
6421;DHT22;3243;50.958;7.012;2022-11-20T09:00:30;5.50;99.90
6421;DHT22;3243;50.958;7.012;2022-11-20T09:02:56;5.60;99.90
6421;DHT22;3243;50.958;7.012;2022-11-20T09:10:19;5.60;99.90
6421;DHT22;3243;50.958;7.012;2022-11-20T09:12:51;5.60;99.90
6421;DHT22;3243;50.958;7.012;2022-11-20T09:15:19;5.60;99.90
6421;DHT22;3243;50.958;7.012;2022-11-20T09:17:57;5.50;99.90
6421;DHT22;3243;50.958;7.012;2022-11-20T09:20:25;5.50;99.90
6421;DHT22;3243;50.958;7.012;2022-11-20T09:25:19;5.60;99.90
6421;DHT22;3243;50.958;7.012;2022-11-20T09:30:14;5.60;99.90
6421;DHT22;3243;50.958;7.012;2022-11-20T09:32:42;5.60;99.90
6421;DHT22;3243;50.958;7.012;2022-11-20T09:35:09;5.70;99.90
6421;DHT22;3243;50.958;7.012;2022-11-20T09:40:04;5.90;99.90
6421;DHT22;3243;50.958;7.012;2022-11-20T09:51:04;6.40;99.90
6421;DHT22;3243;50.958;7.012;2022-11-20T09:56:28;6.40;99.90
6421;DHT22;3243;50.958;7.012;2022-11-20T09:58:59;6.40;99.90
6421;DHT22;3243;50.958;7.012;2022-11-20T10:01:38;6.30;99.90
6421;DHT22;3243;50.958;7.012;2022-11-20T10:04:16;6.30;99.90
6421;DHT22;3243;50.958;7.012;2022-11-20T10:06:51;6.40;99.90
6421;DHT22;3243;50.958;7.012;2022-11-20T10:09:51;6.40;99.90
6421;DHT22;3243;50.958;7.012;2022-11-20T10:20:48;6.60;99.90
6421;DHT22;3243;50.958;7.012;2022-11-20T10:29:01;6.10;99.90
6421;DHT22;3243;50.958;7.012;2022-11-20T10:31:40;6.00;99.90
6421;DHT22;3243;50.958;7.012;2022-11-20T10:34:32;6.10;99.90
6421;DHT22;3243;50.958;7.012;2022-11-20T10:43:08;6.20;99.90
6421;DHT22;3243;50.958;7.012;2022-11-20T10:45:46;6.40;99.90
6421;DHT22;3243;50.958;7.012;2022-11-20T10:48:23;6.50;99.90
6421;DHT22;3243;50.958;7.012;2022-11-20T10:56:45;6.60;99.90
6421;DHT22;3243;50.958;7.012;2022-11-20T11:07:01;6.60;99.90
6421;DHT22;3243;50.958;7.012;2022-11-20T11:09:34;6.50;99.90
6421;DHT22;3243;50.958;7.012;2022-11-20T11:12:08;6.40;99.90
6421;DHT22;3243;50.958;7.012;2022-11-20T11:14:48;6.40;99.90
6421;DHT22;3243;50.958;7.012;2022-11-20T11:17:31;6.30;99.90
6421;DHT22;3243;50.958;7.012;2022-11-20T11:20:05;6.20;99.90
6421;DHT22;3243;50.958;7.012;2022-11-20T11:22:34;6.20;99.90
6421;DHT22;3243;50.958;7.012;2022-11-20T11:25:18;6.30;99.90
6421;DHT22;3243;50.958;7.012;2022-11-20T11:27:49;6.20;99.90
6421;DHT22;3243;50.958;7.012;2022-11-20T11:30:18;6.30;99.90
6421;DHT22;3243;50.958;7.012;2022-11-20T11:35:24;6.40;99.90
6421;DHT22;3243;50.958;7.012;2022-11-20T11:37:54;6.40;99.90
6421;DHT22;3243;50.958;7.012;2022-11-20T11:40:31;6.40;99.90
6421;DHT22;3243;50.958;7.012;2022-11-20T11:43:05;6.40;99.90
6421;DHT22;3243;50.958;7.012;2022-11-20T11:45:54;6.40;99.90
6421;DHT22;3243;50.958;7.012;2022-11-20T11:48:21;6.30;99.90
6421;DHT22;3243;50.958;7.012;2022-11-20T11:50:50;6.30;99.90
6421;DHT22;3243;50.958;7.012;2022-11-20T11:53:18;6.30;99.90
6421;DHT22;3243;50.958;7.012;2022-11-20T12:06:49;6.40;99.90
6421;DHT22;3243;50.958;7.012;2022-11-20T12:09:18;6.40;99.90
6421;DHT22;3243;50.958;7.012;2022-11-20T12:11:54;6.40;99.90
6421;DHT22;3243;50.958;7.012;2022-11-20T12:14:35;6.40;99.90
6421;DHT22;3243;50.958;7.012;2022-11-20T12:19:32;6.50;99.90
6421;DHT22;3243;50.958;7.012;2022-11-20T12:24:44;6.40;99.90
6421;DHT22;3243;50.958;7.012;2022-11-20T12:28:17;6.40;99.90
6421;DHT22;3243;50.958;7.012;2022-11-20T12:30:19;6.40;99.90
6421;DHT22;3243;50.958;7.012;2022-11-20T12:36:06;6.30;99.90
6421;DHT22;3243;50.958;7.012;2022-11-20T12:44:25;6.40;99.90
6421;DHT22;3243;50.958;7.012;2022-11-20T12:47:18;6.50;99.90
6421;DHT22;3243;50.958;7.012;2022-11-20T12:50:08;6.50;99.90
6421;DHT22;3243;50.958;7.012;2022-11-20T12:52:51;6.60;99.90
6421;DHT22;3243;50.958;7.012;2022-11-20T13:01:00;6.80;99.90
6421;DHT22;3243;50.958;7.012;2022-11-20T13:03:50;6.90;99.90
6421;DHT22;3243;50.958;7.012;2022-11-20T13:06:19;7.10;99.90
6421;DHT22;3243;50.958;7.012;2022-11-20T13:08:54;7.30;99.90
6421;DHT22;3243;50.958;7.012;2022-11-20T13:19:21;7.50;99.90
6421;DHT22;3243;50.958;7.012;2022-11-20T13:21:50;7.50;99.90
6421;DHT22;3243;50.958;7.012;2022-11-20T13:29:36;7.50;99.90
6421;DHT22;3243;50.958;7.012;2022-11-20T13:34:55;7.40;99.90
6421;DHT22;3243;50.958;7.012;2022-11-20T13:45:29;7.40;99.90
6421;DHT22;3243;50.958;7.012;2022-11-20T13:47:59;7.30;99.90
6421;DHT22;3243;50.958;7.012;2022-11-20T13:58:37;7.20;99.90
6421;DHT22;3243;50.958;7.012;2022-11-20T14:01:17;7.20;99.90
6421;DHT22;3243;50.958;7.012;2022-11-20T14:03:47;7.10;99.90
6421;DHT22;3243;50.958;7.012;2022-11-20T14:06:43;7.20;99.90
6421;DHT22;3243;50.958;7.012;2022-11-20T14:09:27;7.10;99.90
6421;DHT22;3243;50.958;7.012;2022-11-20T14:11:54;7.10;99.90
6421;DHT22;3243;50.958;7.012;2022-11-20T14:14:23;7.00;99.90
6421;DHT22;3243;50.958;7.012;2022-11-20T14:16:53;7.00;99.90
6421;DHT22;3243;50.958;7.012;2022-11-20T14:19:30;6.20;99.90
6421;DHT22;3243;50.958;7.012;2022-11-20T14:29:35;6.80;99.90
6421;DHT22;3243;50.958;7.012;2022-11-20T14:32:03;6.80;99.90
6421;DHT22;3243;50.958;7.012;2022-11-20T14:34:32;6.80;99.90
6421;DHT22;3243;50.958;7.012;2022-11-20T14:37:04;6.80;99.90
6421;DHT22;3243;50.958;7.012;2022-11-20T14:39:34;6.90;99.90
6421;DHT22;3243;50.958;7.012;2022-11-20T14:42:01;6.90;99.90
6421;DHT22;3243;50.958;7.012;2022-11-20T14:44:32;6.80;99.90
6421;DHT22;3243;50.958;7.012;2022-11-20T14:47:00;6.80;99.90
6421;DHT22;3243;50.958;7.012;2022-11-20T14:49:30;6.80;99.90
6421;DHT22;3243;50.958;7.012;2022-11-20T14:52:09;6.80;99.90
6421;DHT22;3243;50.958;7.012;2022-11-20T14:54:51;6.80;99.90
6421;DHT22;3243;50.958;7.012;2022-11-20T14:57:25;6.80;99.90
6421;DHT22;3243;50.958;7.012;2022-11-20T15:00:06;6.80;99.90
6421;DHT22;3243;50.958;7.012;2022-11-20T15:05:01;6.70;99.90
6421;DHT22;3243;50.958;7.012;2022-11-20T15:07:35;6.70;99.90
6421;DHT22;3243;50.958;7.012;2022-11-20T15:10:19;6.70;99.90
6421;DHT22;3243;50.958;7.012;2022-11-20T15:15:32;6.60;99.90
6421;DHT22;3243;50.958;7.012;2022-11-20T15:17:59;6.60;99.90
6421;DHT22;3243;50.958;7.012;2022-11-20T15:20:29;6.60;99.90
6421;DHT22;3243;50.958;7.012;2022-11-20T15:25:24;6.50;99.90
6421;DHT22;3243;50.958;7.012;2022-11-20T15:27:55;6.50;99.90
6421;DHT22;3243;50.958;7.012;2022-11-20T15:30:23;6.50;99.90
6421;DHT22;3243;50.958;7.012;2022-11-20T15:32:49;6.50;99.90
6421;DHT22;3243;50.958;7.012;2022-11-20T15:37:43;6.40;99.90
6421;DHT22;3243;50.958;7.012;2022-11-20T15:40:10;6.40;99.90
6421;DHT22;3243;50.958;7.012;2022-11-20T15:42:37;6.40;99.90
6421;DHT22;3243;50.958;7.012;2022-11-20T15:45:04;6.40;99.90
6421;DHT22;3243;50.958;7.012;2022-11-20T15:47:33;6.30;99.90
6421;DHT22;3243;50.958;7.012;2022-11-20T15:55:09;6.30;99.90
6421;DHT22;3243;50.958;7.012;2022-11-20T16:02:30;6.30;99.90
6421;DHT22;3243;50.958;7.012;2022-11-20T16:04:57;6.30;99.90
6421;DHT22;3243;50.958;7.012;2022-11-20T16:09:51;6.40;99.90
6421;DHT22;3243;50.958;7.012;2022-11-20T16:15:05;6.40;99.90
6421;DHT22;3243;50.958;7.012;2022-11-20T16:20:17;6.40;99.90
6421;DHT22;3243;50.958;7.012;2022-11-20T16:22:44;6.40;99.90
6421;DHT22;3243;50.958;7.012;2022-11-20T16:27:38;6.40;99.90
6421;DHT22;3243;50.958;7.012;2022-11-20T16:32:32;6.40;99.90
6421;DHT22;3243;50.958;7.012;2022-11-20T16:34:58;6.40;99.90
6421;DHT22;3243;50.958;7.012;2022-11-20T16:37:25;6.40;99.90
6421;DHT22;3243;50.958;7.012;2022-11-20T16:44:46;6.40;99.90
6421;DHT22;3243;50.958;7.012;2022-11-20T16:57:02;6.50;99.90
6421;DHT22;3243;50.958;7.012;2022-11-20T16:59:29;6.50;99.90
6421;DHT22;3243;50.958;7.012;2022-11-20T17:04:23;6.50;99.90
6421;DHT22;3243;50.958;7.012;2022-11-20T17:11:45;6.50;99.90
6421;DHT22;3243;50.958;7.012;2022-11-20T17:21:36;6.60;99.90
6421;DHT22;3243;50.958;7.012;2022-11-20T17:24:05;6.50;99.90
6421;DHT22;3243;50.958;7.012;2022-11-20T17:26:33;6.60;99.90
6421;DHT22;3243;50.958;7.012;2022-11-20T17:29:06;6.50;99.90
6421;DHT22;3243;50.958;7.012;2022-11-20T17:31:34;6.50;99.90
6421;DHT22;3243;50.958;7.012;2022-11-20T17:34:01;6.50;99.90
6421;DHT22;3243;50.958;7.012;2022-11-20T17:36:28;6.60;99.90
6421;DHT22;3243;50.958;7.012;2022-11-20T17:41:24;6.60;99.90
6421;DHT22;3243;50.958;7.012;2022-11-20T17:43:58;6.60;99.90
6421;DHT22;3243;50.958;7.012;2022-11-20T17:46:28;6.50;99.90
6421;DHT22;3243;50.958;7.012;2022-11-20T17:51:25;6.50;99.90
6421;DHT22;3243;50.958;7.012;2022-11-20T17:53:55;6.60;99.90
6421;DHT22;3243;50.958;7.012;2022-11-20T17:56:22;6.50;99.90
6421;DHT22;3243;50.958;7.012;2022-11-20T17:59:09;6.50;99.90
6421;DHT22;3243;50.958;7.012;2022-11-20T18:01:38;6.60;99.90
6421;DHT22;3243;50.958;7.012;2022-11-20T18:04:05;6.60;99.90
6421;DHT22;3243;50.958;7.012;2022-11-20T18:09:00;6.60;99.90
6421;DHT22;3243;50.958;7.012;2022-11-20T18:11:29;6.60;99.90
6421;DHT22;3243;50.958;7.012;2022-11-20T18:13:58;6.60;99.90
6421;DHT22;3243;50.958;7.012;2022-11-20T18:16:50;6.60;99.90
6421;DHT22;3243;50.958;7.012;2022-11-20T18:19:19;6.60;99.90
6421;DHT22;3243;50.958;7.012;2022-11-20T18:21:47;6.60;99.90
6421;DHT22;3243;50.958;7.012;2022-11-20T18:24:14;6.60;99.90
6421;DHT22;3243;50.958;7.012;2022-11-20T18:26:41;6.60;99.90
6421;DHT22;3243;50.958;7.012;2022-11-20T18:29:11;6.70;99.90
6421;DHT22;3243;50.958;7.012;2022-11-20T18:31:38;6.70;99.90
6421;DHT22;3243;50.958;7.012;2022-11-20T18:36:37;6.70;99.90
6421;DHT22;3243;50.958;7.012;2022-11-20T18:39:04;6.70;99.90
6421;DHT22;3243;50.958;7.012;2022-11-20T18:41:31;6.70;99.90
6421;DHT22;3243;50.958;7.012;2022-11-20T18:44:22;6.70;99.90
6421;DHT22;3243;50.958;7.012;2022-11-20T18:47:10;6.80;99.90
6421;DHT22;3243;50.958;7.012;2022-11-20T18:49:44;6.80;99.90
6421;DHT22;3243;50.958;7.012;2022-11-20T18:52:20;6.80;99.90
6421;DHT22;3243;50.958;7.012;2022-11-20T18:54:47;6.80;99.90
6421;DHT22;3243;50.958;7.012;2022-11-20T18:57:22;6.80;99.90
6421;DHT22;3243;50.958;7.012;2022-11-20T19:02:18;6.80;99.90
6421;DHT22;3243;50.958;7.012;2022-11-20T19:04:46;6.80;99.90
6421;DHT22;3243;50.958;7.012;2022-11-20T19:07:13;6.90;99.90
6421;DHT22;3243;50.958;7.012;2022-11-20T19:09:42;6.90;99.90
6421;DHT22;3243;50.958;7.012;2022-11-20T19:12:11;6.90;99.90
6421;DHT22;3243;50.958;7.012;2022-11-20T19:14:38;6.90;99.90
6421;DHT22;3243;50.958;7.012;2022-11-20T19:17:06;7.00;99.90
6421;DHT22;3243;50.958;7.012;2022-11-20T19:19:34;7.00;99.90
6421;DHT22;3243;50.958;7.012;2022-11-20T19:24:28;7.00;99.90
6421;DHT22;3243;50.958;7.012;2022-11-20T19:26:55;7.10;99.90
6421;DHT22;3243;50.958;7.012;2022-11-20T19:29:23;7.20;99.90
6421;DHT22;3243;50.958;7.012;2022-11-20T19:31:50;7.30;99.90
6421;DHT22;3243;50.958;7.012;2022-11-20T19:34:17;7.30;99.90
6421;DHT22;3243;50.958;7.012;2022-11-20T19:36:44;7.40;99.90
6421;DHT22;3243;50.958;7.012;2022-11-20T19:39:11;7.40;99.90
6421;DHT22;3243;50.958;7.012;2022-11-20T19:41:39;7.50;99.90
6421;DHT22;3243;50.958;7.012;2022-11-20T19:46:36;7.60;99.90
6421;DHT22;3243;50.958;7.012;2022-11-20T19:49:04;7.70;99.90
6421;DHT22;3243;50.958;7.012;2022-11-20T19:51:33;7.70;99.90
6421;DHT22;3243;50.958;7.012;2022-11-20T19:54:02;7.70;99.90
6421;DHT22;3243;50.958;7.012;2022-11-20T19:56:30;7.80;99.90
6421;DHT22;3243;50.958;7.012;2022-11-20T19:58:57;7.80;99.90
6421;DHT22;3243;50.958;7.012;2022-11-20T20:01:27;7.80;99.90
6421;DHT22;3243;50.958;7.012;2022-11-20T20:03:54;7.80;99.90
6421;DHT22;3243;50.958;7.012;2022-11-20T20:06:24;7.80;99.90
6421;DHT22;3243;50.958;7.012;2022-11-20T20:09:11;7.80;99.90
6421;DHT22;3243;50.958;7.012;2022-11-20T20:11:38;7.90;99.90
6421;DHT22;3243;50.958;7.012;2022-11-20T20:14:08;7.90;99.90
6421;DHT22;3243;50.958;7.012;2022-11-20T20:19:04;7.90;99.90
6421;DHT22;3243;50.958;7.012;2022-11-20T20:21:32;7.90;99.90
6421;DHT22;3243;50.958;7.012;2022-11-20T20:24:00;8.00;99.90
6421;DHT22;3243;50.958;7.012;2022-11-20T20:26:29;7.90;99.90
6421;DHT22;3243;50.958;7.012;2022-11-20T20:31:25;8.00;99.90
6421;DHT22;3243;50.958;7.012;2022-11-20T20:36:20;8.10;99.90
6421;DHT22;3243;50.958;7.012;2022-11-20T20:38:54;8.10;99.90
6421;DHT22;3243;50.958;7.012;2022-11-20T20:41:22;8.10;99.90
6421;DHT22;3243;50.958;7.012;2022-11-20T20:43:50;8.10;99.90
6421;DHT22;3243;50.958;7.012;2022-11-20T20:51:30;8.20;99.90
6421;DHT22;3243;50.958;7.012;2022-11-20T20:56:25;8.20;99.90
6421;DHT22;3243;50.958;7.012;2022-11-20T20:58:51;8.20;99.90
6421;DHT22;3243;50.958;7.012;2022-11-20T21:01:19;8.20;99.90
6421;DHT22;3243;50.958;7.012;2022-11-20T21:06:13;8.20;99.90
6421;DHT22;3243;50.958;7.012;2022-11-20T21:11:12;8.20;99.90
6421;DHT22;3243;50.958;7.012;2022-11-20T21:13:41;8.20;99.90
6421;DHT22;3243;50.958;7.012;2022-11-20T21:16:09;8.20;99.90
6421;DHT22;3243;50.958;7.012;2022-11-20T21:21:05;8.20;99.90
6421;DHT22;3243;50.958;7.012;2022-11-20T21:23:50;8.20;99.90
6421;DHT22;3243;50.958;7.012;2022-11-20T21:26:19;8.20;99.90
6421;DHT22;3243;50.958;7.012;2022-11-20T21:28:46;8.20;99.90
6421;DHT22;3243;50.958;7.012;2022-11-20T21:31:18;8.20;99.90
6421;DHT22;3243;50.958;7.012;2022-11-20T21:33:48;8.20;99.90
6421;DHT22;3243;50.958;7.012;2022-11-20T21:36:20;8.10;99.90
6421;DHT22;3243;50.958;7.012;2022-11-20T21:38:49;8.10;99.90
6421;DHT22;3243;50.958;7.012;2022-11-20T21:43:43;8.00;99.90
6421;DHT22;3243;50.958;7.012;2022-11-20T21:46:13;8.10;99.90
6421;DHT22;3243;50.958;7.012;2022-11-20T21:48:41;8.00;99.90
6421;DHT22;3243;50.958;7.012;2022-11-20T21:51:10;8.00;99.90
6421;DHT22;3243;50.958;7.012;2022-11-20T21:53:37;8.00;99.90
6421;DHT22;3243;50.958;7.012;2022-11-20T21:56:06;8.10;99.90
6421;DHT22;3243;50.958;7.012;2022-11-20T21:58:34;8.10;99.90
6421;DHT22;3243;50.958;7.012;2022-11-20T22:01:15;8.10;99.90
6421;DHT22;3243;50.958;7.012;2022-11-20T22:03:47;8.10;99.90
6421;DHT22;3243;50.958;7.012;2022-11-20T22:06:15;8.00;99.90
6421;DHT22;3243;50.958;7.012;2022-11-20T22:11:12;8.00;99.90
6421;DHT22;3243;50.958;7.012;2022-11-20T22:13:40;7.90;99.90
6421;DHT22;3243;50.958;7.012;2022-11-20T22:16:25;7.90;99.90
6421;DHT22;3243;50.958;7.012;2022-11-20T22:18:53;7.80;99.90
6421;DHT22;3243;50.958;7.012;2022-11-20T22:21:23;7.80;99.90
6421;DHT22;3243;50.958;7.012;2022-11-20T22:23:50;7.80;99.90
6421;DHT22;3243;50.958;7.012;2022-11-20T22:26:19;7.80;99.90
6421;DHT22;3243;50.958;7.012;2022-11-20T22:28:50;7.80;99.90
6421;DHT22;3243;50.958;7.012;2022-11-20T22:31:19;7.70;99.90
6421;DHT22;3243;50.958;7.012;2022-11-20T22:33:47;7.70;99.90
6421;DHT22;3243;50.958;7.012;2022-11-20T22:36:18;7.70;99.90
6421;DHT22;3243;50.958;7.012;2022-11-20T22:38:45;7.80;99.90
6421;DHT22;3243;50.958;7.012;2022-11-20T22:41:13;7.80;99.90
6421;DHT22;3243;50.958;7.012;2022-11-20T22:43:41;7.80;99.90
6421;DHT22;3243;50.958;7.012;2022-11-20T22:48:38;7.80;99.90
6421;DHT22;3243;50.958;7.012;2022-11-20T22:51:13;7.70;99.90
6421;DHT22;3243;50.958;7.012;2022-11-20T22:53:41;7.70;99.90
6421;DHT22;3243;50.958;7.012;2022-11-20T22:56:09;7.70;99.90
6421;DHT22;3243;50.958;7.012;2022-11-20T22:58:39;7.60;99.90
6421;DHT22;3243;50.958;7.012;2022-11-20T23:03:33;7.70;99.90
6421;DHT22;3243;50.958;7.012;2022-11-20T23:06:00;7.70;99.90
6421;DHT22;3243;50.958;7.012;2022-11-20T23:08:27;7.70;99.90
6421;DHT22;3243;50.958;7.012;2022-11-20T23:11:02;7.70;99.90
6421;DHT22;3243;50.958;7.012;2022-11-20T23:13:29;7.70;99.90
6421;DHT22;3243;50.958;7.012;2022-11-20T23:16:08;7.70;99.90
6421;DHT22;3243;50.958;7.012;2022-11-20T23:21:14;7.60;99.90
6421;DHT22;3243;50.958;7.012;2022-11-20T23:23:41;7.60;99.90
6421;DHT22;3243;50.958;7.012;2022-11-20T23:26:10;7.50;99.90
6421;DHT22;3243;50.958;7.012;2022-11-20T23:28:38;7.50;99.90
6421;DHT22;3243;50.958;7.012;2022-11-20T23:31:06;7.50;99.90
6421;DHT22;3243;50.958;7.012;2022-11-20T23:33:38;7.50;99.90
6421;DHT22;3243;50.958;7.012;2022-11-20T23:41:00;7.50;99.90
6421;DHT22;3243;50.958;7.012;2022-11-20T23:43:27;7.40;99.90
6421;DHT22;3243;50.958;7.012;2022-11-20T23:45:55;7.40;99.90
6421;DHT22;3243;50.958;7.012;2022-11-20T23:48:25;7.40;99.90
6421;DHT22;3243;50.958;7.012;2022-11-20T23:53:20;7.40;99.90
6421;DHT22;3243;50.958;7.012;2022-11-20T23:55:52;7.50;99.90
6421;DHT22;3243;50.958;7.012;2022-11-20T23:58:20;7.40;99.90
